Decoded Metar for CYYN (SWIFT CURRENT in SK, CANADA) (IATA:YYN) | Meteo·Mobile Aviation Weather
aviador You're here:

CYYN Decoded Metar

SWIFT CURRENT in SK, CANADA
Report Time2019-01-18 13:14:00
UTC Time2019-01-18 13:21:53
Flight Rules mvfr MVFR
Wind110° at 10 kt
W.Decomp.*RWY 12: 9.2 kt HW 3.9 kt LCW
RWY 04: 5.4 kt HW 8.4 kt RCW
W.Rank110° ranks 22
Current wind is above 110° avg. (9.6)
Visibility8047 m
Phenomena:Light Snow
Clouds:Broken 055 Hf
Overcast 067 Hf
Expected CloudBase > 1,600 ft AGL from Temp-Dew spread
Ceiling5,500 ft
Temp-18°C (ISA -28)
Dew Point-22°C (71% RH)
AAT-25.3°C
QNH1019 hPa
Density Alt-997 ft
Elevation2,684 ft
Report Wrong Elevation
Raw Report
SPECI CYYN 181314Z AUTO 11010KT 5SM -SN BKN055 OVC067 M18/M22 A3010 RMK SLP265=

Extra information for CYYN:More info

Metar Taf Metar & Taf Last 4 Metars F.Rules Stats Wind Profile Meteogram Temp Stats Airport Information Weather charts Add Link Nearby VenuesMetar ALERT Operation Metar Decoded Social comments